sensor_id;sensor_type;location;lat;lon;timestamp;pressure;altitude;pressure_sealevel;temperature;humidity
71964;BME280;59834;52.124;5.422;2023-08-17T00:00:59;102145.66;;;17.50;81.41
71964;BME280;59834;52.124;5.422;2023-08-17T00:03:26;102148.44;;;17.48;80.76
71964;BME280;59834;52.124;5.422;2023-08-17T00:05:52;102150.34;;;17.46;80.95
71964;BME280;59834;52.124;5.422;2023-08-17T00:08:21;102151.50;;;17.42;81.66
71964;BME280;59834;52.124;5.422;2023-08-17T00:10:47;102141.97;;;17.39;81.93
71964;BME280;59834;52.124;5.422;2023-08-17T00:13:14;102149.22;;;17.37;82.51
71964;BME280;59834;52.124;5.422;2023-08-17T00:15:41;102148.47;;;17.35;82.66
71964;BME280;59834;52.124;5.422;2023-08-17T00:18:08;102146.78;;;17.34;82.48
71964;BME280;59834;52.124;5.422;2023-08-17T00:20:38;102142.41;;;17.33;82.89
71964;BME280;59834;52.124;5.422;2023-08-17T00:23:05;102146.16;;;17.31;82.79
71964;BME280;59834;52.124;5.422;2023-08-17T00:25:32;102144.78;;;17.25;83.71
71964;BME280;59834;52.124;5.422;2023-08-17T00:27:59;102145.75;;;17.24;83.05
71964;BME280;59834;52.124;5.422;2023-08-17T00:30:25;102147.84;;;17.19;82.46
71964;BME280;59834;52.124;5.422;2023-08-17T00:32:52;102145.53;;;17.14;83.66
71964;BME280;59834;52.124;5.422;2023-08-17T00:35:19;102146.38;;;17.15;83.13
71964;BME280;59834;52.124;5.422;2023-08-17T00:37:46;102142.78;;;17.16;83.43
71964;BME280;59834;52.124;5.422;2023-08-17T00:40:13;102147.22;;;17.15;83.53
71964;BME280;59834;52.124;5.422;2023-08-17T00:42:40;102143.00;;;17.13;83.65
71964;BME280;59834;52.124;5.422;2023-08-17T00:45:07;102142.47;;;17.08;83.89
71964;BME280;59834;52.124;5.422;2023-08-17T00:47:33;102142.34;;;17.09;83.59
71964;BME280;59834;52.124;5.422;2023-08-17T00:50:00;102140.78;;;17.07;83.67
71964;BME280;59834;52.124;5.422;2023-08-17T00:52:28;102133.78;;;17.06;83.35
71964;BME280;59834;52.124;5.422;2023-08-17T00:54:55;102131.16;;;17.06;83.74
71964;BME280;59834;52.124;5.422;2023-08-17T00:57:23;102145.34;;;17.05;83.33
71964;BME280;59834;52.124;5.422;2023-08-17T00:59:50;102140.13;;;17.03;83.65
71964;BME280;59834;52.124;5.422;2023-08-17T01:02:30;102141.94;;;17.03;83.25
71964;BME280;59834;52.124;5.422;2023-08-17T01:04:56;102140.47;;;16.99;83.09
71964;BME280;59834;52.124;5.422;2023-08-17T01:07:23;102138.16;;;16.94;83.47
71964;BME280;59834;52.124;5.422;2023-08-17T01:09:51;102129.47;;;16.92;83.86
71964;BME280;59834;52.124;5.422;2023-08-17T01:12:24;102138.66;;;16.86;83.51
71964;BME280;59834;52.124;5.422;2023-08-17T01:15:02;102138.66;;;16.86;84.42
71964;BME280;59834;52.124;5.422;2023-08-17T01:17:43;102138.78;;;16.85;83.87
71964;BME280;59834;52.124;5.422;2023-08-17T01:20:13;102139.63;;;16.85;84.36
71964;BME280;59834;52.124;5.422;2023-08-17T01:22:41;102137.19;;;16.82;84.25
71964;BME280;59834;52.124;5.422;2023-08-17T01:25:10;102121.34;;;16.82;84.17
71964;BME280;59834;52.124;5.422;2023-08-17T01:27:43;102122.28;;;16.81;84.35
71964;BME280;59834;52.124;5.422;2023-08-17T01:30:12;102126.00;;;16.79;83.86
71964;BME280;59834;52.124;5.422;2023-08-17T01:32:48;102124.41;;;16.76;84.40
71964;BME280;59834;52.124;5.422;2023-08-17T01:35:44;102132.44;;;16.75;83.48
71964;BME280;59834;52.124;5.422;2023-08-17T01:38:17;102123.72;;;16.72;84.50
71964;BME280;59834;52.124;5.422;2023-08-17T01:40:48;102129.34;;;16.68;84.46
71964;BME280;59834;52.124;5.422;2023-08-17T01:43:17;102118.88;;;16.66;84.98
71964;BME280;59834;52.124;5.422;2023-08-17T01:45:44;102130.53;;;16.64;85.01
71964;BME280;59834;52.124;5.422;2023-08-17T01:48:11;102127.88;;;16.64;85.33
71964;BME280;59834;52.124;5.422;2023-08-17T01:50:39;102129.69;;;16.63;84.81
71964;BME280;59834;52.124;5.422;2023-08-17T01:53:06;102119.94;;;16.64;85.41
71964;BME280;59834;52.124;5.422;2023-08-17T01:55:34;102122.16;;;16.57;85.17
71964;BME280;59834;52.124;5.422;2023-08-17T01:58:01;102122.25;;;16.56;85.63
71964;BME280;59834;52.124;5.422;2023-08-17T02:00:28;102118.69;;;16.57;85.60
71964;BME280;59834;52.124;5.422;2023-08-17T02:02:55;102116.25;;;16.54;85.71
71964;BME280;59834;52.124;5.422;2023-08-17T02:05:21;102112.84;;;16.52;85.99
71964;BME280;59834;52.124;5.422;2023-08-17T02:07:48;102109.56;;;16.48;86.03
71964;BME280;59834;52.124;5.422;2023-08-17T02:10:15;102112.41;;;16.45;86.11
71964;BME280;59834;52.124;5.422;2023-08-17T02:12:41;102118.88;;;16.41;86.01
71964;BME280;59834;52.124;5.422;2023-08-17T02:15:08;102112.75;;;16.40;86.32
71964;BME280;59834;52.124;5.422;2023-08-17T02:17:35;102120.13;;;16.35;86.24
71964;BME280;59834;52.124;5.422;2023-08-17T02:20:01;102119.41;;;16.33;87.04
71964;BME280;59834;52.124;5.422;2023-08-17T02:22:30;102132.59;;;16.33;86.45
71964;BME280;59834;52.124;5.422;2023-08-17T02:24:56;102132.69;;;16.32;86.33
71964;BME280;59834;52.124;5.422;2023-08-17T02:27:23;102129.41;;;16.28;86.34
71964;BME280;59834;52.124;5.422;2023-08-17T02:29:50;102126.66;;;16.30;87.31
71964;BME280;59834;52.124;5.422;2023-08-17T02:32:16;102127.72;;;16.27;87.48
71964;BME280;59834;52.124;5.422;2023-08-17T02:34:43;102120.72;;;16.26;86.78
71964;BME280;59834;52.124;5.422;2023-08-17T02:37:10;102118.84;;;16.28;87.14
71964;BME280;59834;52.124;5.422;2023-08-17T02:39:36;102116.19;;;16.28;87.50
71964;BME280;59834;52.124;5.422;2023-08-17T02:42:03;102116.19;;;16.28;87.20
71964;BME280;59834;52.124;5.422;2023-08-17T02:44:30;102116.97;;;16.30;87.40
71964;BME280;59834;52.124;5.422;2023-08-17T02:46:56;102117.03;;;16.29;87.46
71964;BME280;59834;52.124;5.422;2023-08-17T02:49:23;102107.44;;;16.27;87.03
71964;BME280;59834;52.124;5.422;2023-08-17T02:51:50;102104.88;;;16.26;87.81
71964;BME280;59834;52.124;5.422;2023-08-17T02:54:17;102101.31;;;16.27;86.83
71964;BME280;59834;52.124;5.422;2023-08-17T02:56:44;102098.13;;;16.22;87.62
71964;BME280;59834;52.124;5.422;2023-08-17T02:59:10;102100.03;;;16.20;87.75
71964;BME280;59834;52.124;5.422;2023-08-17T03:01:37;102106.03;;;16.22;87.93
71964;BME280;59834;52.124;5.422;2023-08-17T03:04:04;102100.25;;;16.17;87.39
71964;BME280;59834;52.124;5.422;2023-08-17T03:06:30;102103.72;;;16.17;88.64
71964;BME280;59834;52.124;5.422;2023-08-17T03:08:57;102097.59;;;16.17;88.15
71964;BME280;59834;52.124;5.422;2023-08-17T03:11:23;102094.97;;;16.17;88.13
71964;BME280;59834;52.124;5.422;2023-08-17T03:13:50;102102.75;;;16.18;87.45
71964;BME280;59834;52.124;5.422;2023-08-17T03:16:16;102108.16;;;16.17;87.96
71964;BME280;59834;52.124;5.422;2023-08-17T03:18:43;102102.13;;;16.15;88.04
71964;BME280;59834;52.124;5.422;2023-08-17T03:21:11;102105.72;;;16.14;87.43
71964;BME280;59834;52.124;5.422;2023-08-17T03:23:38;102097.69;;;16.15;87.63
71964;BME280;59834;52.124;5.422;2023-08-17T03:26:05;102101.28;;;16.14;88.28
71964;BME280;59834;52.124;5.422;2023-08-17T03:28:31;102098.84;;;16.11;88.01
71964;BME280;59834;52.124;5.422;2023-08-17T03:30:58;102078.69;;;16.10;88.28
71964;BME280;59834;52.124;5.422;2023-08-17T03:33:25;102090.16;;;16.09;87.36
71964;BME280;59834;52.124;5.422;2023-08-17T03:35:51;102086.69;;;16.09;87.61
71964;BME280;59834;52.124;5.422;2023-08-17T03:38:18;102093.69;;;16.10;87.83
71964;BME280;59834;52.124;5.422;2023-08-17T03:40:44;102096.31;;;16.10;87.51
71964;BME280;59834;52.124;5.422;2023-08-17T03:43:13;102085.09;;;16.06;87.80
71964;BME280;59834;52.124;5.422;2023-08-17T03:45:43;102087.00;;;16.04;88.39
71964;BME280;59834;52.124;5.422;2023-08-17T03:48:09;102081.09;;;16.00;88.33
71964;BME280;59834;52.124;5.422;2023-08-17T03:50:36;102088.03;;;16.01;88.00
71964;BME280;59834;52.124;5.422;2023-08-17T03:53:04;102091.53;;;16.02;88.64
71964;BME280;59834;52.124;5.422;2023-08-17T03:55:31;102081.09;;;16.00;88.25
71964;BME280;59834;52.124;5.422;2023-08-17T03:57:57;102079.28;;;16.01;88.34
71964;BME280;59834;52.124;5.422;2023-08-17T04:00:24;102087.28;;;15.99;88.59
71964;BME280;59834;52.124;5.422;2023-08-17T04:02:50;102084.75;;;15.98;88.57
71964;BME280;59834;52.124;5.422;2023-08-17T04:05:18;102089.09;;;15.99;88.17
71964;BME280;59834;52.124;5.422;2023-08-17T04:07:45;102085.59;;;15.98;87.52
71964;BME280;59834;52.124;5.422;2023-08-17T04:10:13;102091.72;;;15.99;88.34
71964;BME280;59834;52.124;5.422;2023-08-17T04:12:40;102099.66;;;15.99;87.73
71964;BME280;59834;52.124;5.422;2023-08-17T04:15:07;102091.09;;;15.95;88.29
71964;BME280;59834;52.124;5.422;2023-08-17T04:17:34;102092.03;;;15.94;87.96
71964;BME280;59834;52.124;5.422;2023-08-17T04:20:01;102093.72;;;15.95;88.32
71964;BME280;59834;52.124;5.422;2023-08-17T04:22:28;102094.69;;;15.94;88.65
71964;BME280;59834;52.124;5.422;2023-08-17T04:24:55;102096.47;;;15.94;88.40
71964;BME280;59834;52.124;5.422;2023-08-17T04:27:21;102093.00;;;15.93;88.36
71964;BME280;59834;52.124;5.422;2023-08-17T04:29:48;102091.09;;;15.95;88.41
71964;BME280;59834;52.124;5.422;2023-08-17T04:32:15;102086.66;;;15.96;88.65
71964;BME280;59834;52.124;5.422;2023-08-17T04:34:43;102093.66;;;15.97;87.94
71964;BME280;59834;52.124;5.422;2023-08-17T04:37:10;102083.94;;;15.97;88.42
71964;BME280;59834;52.124;5.422;2023-08-17T04:39:36;102085.59;;;15.98;88.01
71964;BME280;59834;52.124;5.422;2023-08-17T04:42:04;102083.94;;;15.97;88.13
71964;BME280;59834;52.124;5.422;2023-08-17T04:44:31;102085.59;;;15.98;88.19
71964;BME280;59834;52.124;5.422;2023-08-17T04:46:57;102088.16;;;16.00;88.18
71964;BME280;59834;52.124;5.422;2023-08-17T04:49:24;102076.72;;;15.99;88.31
71964;BME280;59834;52.124;5.422;2023-08-17T04:51:52;102070.53;;;16.00;87.98
71964;BME280;59834;52.124;5.422;2023-08-17T04:54:19;102082.88;;;16.00;87.75
71964;BME280;59834;52.124;5.422;2023-08-17T04:56:46;102083.72;;;16.00;87.87
71964;BME280;59834;52.124;5.422;2023-08-17T04:59:12;102081.91;;;16.01;88.23
71964;BME280;59834;52.124;5.422;2023-08-17T05:01:39;102087.00;;;16.04;88.15
71964;BME280;59834;52.124;5.422;2023-08-17T05:04:08;102088.59;;;16.07;87.71
71964;BME280;59834;52.124;5.422;2023-08-17T05:06:34;102081.50;;;16.07;88.38
71964;BME280;59834;52.124;5.422;2023-08-17T05:09:01;102069.16;;;16.08;87.35
71964;BME280;59834;52.124;5.422;2023-08-17T05:11:32;102076.97;;;16.09;87.94
71964;BME280;59834;52.124;5.422;2023-08-17T05:13:59;102068.94;;;16.11;88.31
71964;BME280;59834;52.124;5.422;2023-08-17T05:16:25;102083.00;;;16.11;87.54
71964;BME280;59834;52.124;5.422;2023-08-17T05:18:52;102073.28;;;16.12;87.57
71964;BME280;59834;52.124;5.422;2023-08-17T05:21:19;102070.53;;;16.13;87.93
71964;BME280;59834;52.124;5.422;2023-08-17T05:23:45;102068.53;;;16.17;87.50
71964;BME280;59834;52.124;5.422;2023-08-17T05:26:12;102075.50;;;16.18;86.99
71964;BME280;59834;52.124;5.422;2023-08-17T05:28:41;102071.81;;;16.20;87.05
71964;BME280;59834;52.124;5.422;2023-08-17T05:31:09;102077.53;;;16.27;87.40
71964;BME280;59834;52.124;5.422;2023-08-17T05:33:35;102074.25;;;16.36;87.10
71964;BME280;59834;52.124;5.422;2023-08-17T05:36:03;102073.41;;;16.48;86.39
71964;BME280;59834;52.124;5.422;2023-08-17T05:38:30;102073.63;;;16.71;85.24
71964;BME280;59834;52.124;5.422;2023-08-17T05:40:58;102079.66;;;16.99;83.87
71964;BME280;59834;52.124;5.422;2023-08-17T05:43:25;102070.63;;;17.14;83.08
71964;BME280;59834;52.124;5.422;2023-08-17T05:45:52;102071.34;;;17.16;83.39
71964;BME280;59834;52.124;5.422;2023-08-17T05:48:21;102072.13;;;17.42;81.99
71964;BME280;59834;52.124;5.422;2023-08-17T05:50:48;102070.56;;;17.87;80.63
71964;BME280;59834;52.124;5.422;2023-08-17T05:53:15;102068.16;;;18.31;77.87
71964;BME280;59834;52.124;5.422;2023-08-17T05:55:42;102068.94;;;18.78;75.71
71964;BME280;59834;52.124;5.422;2023-08-17T05:58:08;102078.31;;;19.04;74.69
71964;BME280;59834;52.124;5.422;2023-08-17T06:00:36;102076.38;;;19.18;74.20
71964;BME280;59834;52.124;5.422;2023-08-17T06:03:04;102078.66;;;19.11;73.86
71964;BME280;59834;52.124;5.422;2023-08-17T06:05:30;102100.50;;;18.81;74.81
71964;BME280;59834;52.124;5.422;2023-08-17T06:07:57;102096.59;;;18.40;75.98
71964;BME280;59834;52.124;5.422;2023-08-17T06:10:24;102096.25;;;18.45;76.68
71964;BME280;59834;52.124;5.422;2023-08-17T06:12:55;102101.09;;;18.04;77.83
71964;BME280;59834;52.124;5.422;2023-08-17T06:15:23;102107.56;;;17.76;79.25
71964;BME280;59834;52.124;5.422;2023-08-17T06:17:50;102111.59;;;17.69;79.09
71964;BME280;59834;52.124;5.422;2023-08-17T06:20:17;102107.13;;;17.46;80.58
71964;BME280;59834;52.124;5.422;2023-08-17T06:22:44;102115.44;;;17.41;80.90
71964;BME280;59834;52.124;5.422;2023-08-17T06:25:11;102109.41;;;17.26;81.09
71964;BME280;59834;52.124;5.422;2023-08-17T06:27:37;102105.09;;;17.25;81.60
71964;BME280;59834;52.124;5.422;2023-08-17T06:30:04;102102.56;;;17.24;82.56
71964;BME280;59834;52.124;5.422;2023-08-17T06:32:31;102109.63;;;17.23;81.90
71964;BME280;59834;52.124;5.422;2023-08-17T06:34:58;102109.13;;;17.18;82.53
71964;BME280;59834;52.124;5.422;2023-08-17T06:37:24;102111.03;;;17.16;82.98
71964;BME280;59834;52.124;5.422;2023-08-17T06:39:51;102114.41;;;17.18;83.13
71964;BME280;59834;52.124;5.422;2023-08-17T06:42:18;102112.41;;;17.22;83.09
71964;BME280;59834;52.124;5.422;2023-08-17T06:44:45;102112.81;;;17.28;83.58
71964;BME280;59834;52.124;5.422;2023-08-17T06:47:11;102111.84;;;17.29;82.76
71964;BME280;59834;52.124;5.422;2023-08-17T06:49:38;102113.44;;;17.32;82.95
71964;BME280;59834;52.124;5.422;2023-08-17T06:52:04;102111.06;;;17.40;82.89
71964;BME280;59834;52.124;5.422;2023-08-17T06:54:32;102108.19;;;17.43;81.82
71964;BME280;59834;52.124;5.422;2023-08-17T06:56:58;102116.25;;;17.41;82.31
71964;BME280;59834;52.124;5.422;2023-08-17T06:59:26;102115.22;;;17.44;82.69
71964;BME280;59834;52.124;5.422;2023-08-17T07:01:53;102115.00;;;17.47;82.18
71964;BME280;59834;52.124;5.422;2023-08-17T07:04:19;102118.47;;;17.48;82.35
71964;BME280;59834;52.124;5.422;2023-08-17T07:06:46;102121.34;;;17.44;82.00
71964;BME280;59834;52.124;5.422;2023-08-17T07:09:13;102116.88;;;17.45;82.68
71964;BME280;59834;52.124;5.422;2023-08-17T07:11:41;102122.16;;;17.58;82.57
71964;BME280;59834;52.124;5.422;2023-08-17T07:14:07;102120.13;;;17.61;81.72
71964;BME280;59834;52.124;5.422;2023-08-17T07:16:34;102121.31;;;17.57;81.78
71964;BME280;59834;52.124;5.422;2023-08-17T07:19:02;102112.84;;;17.52;82.49
71964;BME280;59834;52.124;5.422;2023-08-17T07:21:28;102114.91;;;17.60;81.64
71964;BME280;59834;52.124;5.422;2023-08-17T07:23:55;102119.44;;;17.71;82.25
71964;BME280;59834;52.124;5.422;2023-08-17T07:26:22;102121.22;;;17.83;81.48
71964;BME280;59834;52.124;5.422;2023-08-17T07:28:49;102111.00;;;17.89;81.23
71964;BME280;59834;52.124;5.422;2023-08-17T07:31:15;102124.75;;;17.95;80.71
71964;BME280;59834;52.124;5.422;2023-08-17T07:33:42;102122.50;;;18.01;80.18
71964;BME280;59834;52.124;5.422;2023-08-17T07:36:08;102126.03;;;18.13;79.56
71964;BME280;59834;52.124;5.422;2023-08-17T07:38:35;102114.06;;;18.43;79.58
71964;BME280;59834;52.124;5.422;2023-08-17T07:41:02;102110.78;;;18.86;77.79
71964;BME280;59834;52.124;5.422;2023-08-17T07:43:29;102111.75;;;19.18;75.94
71964;BME280;59834;52.124;5.422;2023-08-17T07:45:57;102111.09;;;19.37;75.14
71964;BME280;59834;52.124;5.422;2023-08-17T07:48:24;102108.31;;;19.39;74.41
71964;BME280;59834;52.124;5.422;2023-08-17T07:50:51;102112.41;;;19.43;75.00
71964;BME280;59834;52.124;5.422;2023-08-17T07:53:19;102111.44;;;19.44;74.53
71964;BME280;59834;52.124;5.422;2023-08-17T07:55:46;102110.00;;;19.40;74.36
71964;BME280;59834;52.124;5.422;2023-08-17T07:58:15;102105.53;;;19.40;74.52
71964;BME280;59834;52.124;5.422;2023-08-17T08:00:42;102113.09;;;19.45;74.27
71964;BME280;59834;52.124;5.422;2023-08-17T08:03:09;102123.13;;;19.52;73.64
71964;BME280;59834;52.124;5.422;2023-08-17T08:05:35;102119.91;;;19.26;75.13
71964;BME280;59834;52.124;5.422;2023-08-17T08:08:02;102125.69;;;19.43;73.93
71964;BME280;59834;52.124;5.422;2023-08-17T08:10:29;102120.03;;;19.36;74.03
71964;BME280;59834;52.124;5.422;2023-08-17T08:12:55;102126.38;;;19.56;73.25
71964;BME280;59834;52.124;5.422;2023-08-17T08:15:22;102115.28;;;19.51;74.61
71964;BME280;59834;52.124;5.422;2023-08-17T08:17:49;102118.75;;;19.63;73.09
71964;BME280;59834;52.124;5.422;2023-08-17T08:20:17;102112.41;;;19.43;74.04
71964;BME280;59834;52.124;5.422;2023-08-17T08:22:43;102120.06;;;19.68;74.39
71964;BME280;59834;52.124;5.422;2023-08-17T08:25:10;102110.09;;;19.93;73.07
71964;BME280;59834;52.124;5.422;2023-08-17T08:27:36;102110.56;;;19.98;72.49
71964;BME280;59834;52.124;5.422;2023-08-17T08:30:04;102109.94;;;19.73;73.52
71964;BME280;59834;52.124;5.422;2023-08-17T08:32:31;102112.50;;;19.64;73.71
71964;BME280;59834;52.124;5.422;2023-08-17T08:34:58;102115.28;;;19.51;74.27
71964;BME280;59834;52.124;5.422;2023-08-17T08:37:24;102116.78;;;19.33;74.67
71964;BME280;59834;52.124;5.422;2023-08-17T08:39:54;102116.63;;;19.45;74.91
71964;BME280;59834;52.124;5.422;2023-08-17T08:42:21;102121.59;;;19.39;74.66
71964;BME280;59834;52.124;5.422;2023-08-17T08:44:49;102115.09;;;19.31;75.58
71964;BME280;59834;52.124;5.422;2023-08-17T08:47:17;102118.59;;;19.32;75.50
71964;BME280;59834;52.124;5.422;2023-08-17T08:52:27;102102.56;;;19.22;75.77
71964;BME280;59834;52.124;5.422;2023-08-17T08:55:21;102108.47;;;19.26;75.40
71964;BME280;59834;52.124;5.422;2023-08-17T08:57:49;102107.63;;;19.25;75.51
71964;BME280;59834;52.124;5.422;2023-08-17T09:00:18;102108.09;;;19.19;75.38
71964;BME280;59834;52.124;5.422;2023-08-17T09:02:45;102096.03;;;19.26;76.34
71964;BME280;59834;52.124;5.422;2023-08-17T09:05:12;102105.88;;;19.47;75.33
71964;BME280;59834;52.124;5.422;2023-08-17T09:07:42;102108.16;;;19.51;74.97
71964;BME280;59834;52.124;5.422;2023-08-17T09:10:10;102095.56;;;19.76;74.48
71964;BME280;59834;52.124;5.422;2023-08-17T09:12:36;102101.16;;;19.94;73.80
71964;BME280;59834;52.124;5.422;2023-08-17T09:15:07;102092.47;;;19.92;73.70
71964;BME280;59834;52.124;5.422;2023-08-17T09:17:33;102092.75;;;20.10;72.86
71964;BME280;59834;52.124;5.422;2023-08-17T09:20:04;102087.88;;;20.15;73.05
71964;BME280;59834;52.124;5.422;2023-08-17T09:22:42;102084.44;;;20.24;72.89
71964;BME280;59834;52.124;5.422;2023-08-17T09:25:10;102084.84;;;20.19;73.07
71964;BME280;59834;52.124;5.422;2023-08-17T09:27:38;102084.63;;;20.11;73.48
71964;BME280;59834;52.124;5.422;2023-08-17T09:30:08;102089.63;;;20.05;73.81
71964;BME280;59834;52.124;5.422;2023-08-17T09:32:35;102079.78;;;20.16;73.69
71964;BME280;59834;52.124;5.422;2023-08-17T09:35:03;102077.06;;;20.28;73.89
71964;BME280;59834;52.124;5.422;2023-08-17T09:37:32;102075.28;;;20.38;72.99
71964;BME280;59834;52.124;5.422;2023-08-17T09:39:59;102073.66;;;20.46;72.62
71964;BME280;59834;52.124;5.422;2023-08-17T09:42:26;102072.31;;;20.31;72.59
71964;BME280;59834;52.124;5.422;2023-08-17T09:44:54;102081.59;;;20.16;73.41
71964;BME280;59834;52.124;5.422;2023-08-17T09:47:22;102067.13;;;20.30;72.72
71964;BME280;59834;52.124;5.422;2023-08-17T09:49:53;102068.03;;;20.40;72.86
71964;BME280;59834;52.124;5.422;2023-08-17T09:52:20;102066.47;;;20.37;72.52
71964;BME280;59834;52.124;5.422;2023-08-17T09:54:48;102071.06;;;20.35;72.41
71964;BME280;59834;52.124;5.422;2023-08-17T09:57:15;102060.72;;;20.32;72.90
71964;BME280;59834;52.124;5.422;2023-08-17T09:59:49;102063.69;;;20.39;72.32
71964;BME280;59834;52.124;5.422;2023-08-17T10:02:22;102066.88;;;20.33;72.11
71964;BME280;59834;52.124;5.422;2023-08-17T10:04:56;102065.25;;;20.20;72.99
71964;BME280;59834;52.124;5.422;2023-08-17T10:07:29;102063.84;;;20.16;73.19
71964;BME280;59834;52.124;5.422;2023-08-17T10:10:04;102059.63;;;20.14;73.31
71964;BME280;59834;52.124;5.422;2023-08-17T10:12:39;102060.09;;;20.19;73.44
71964;BME280;59834;52.124;5.422;2023-08-17T10:15:11;102051.19;;;20.30;73.23
71964;BME280;59834;52.124;5.422;2023-08-17T10:20:59;102047.00;;;20.06;74.32
71964;BME280;59834;52.124;5.422;2023-08-17T10:23:28;102056.91;;;20.04;73.93
71964;BME280;59834;52.124;5.422;2023-08-17T10:25:55;102044.13;;;19.98;73.64
71964;BME280;59834;52.124;5.422;2023-08-17T10:28:24;102050.66;;;19.94;74.31
71964;BME280;59834;52.124;5.422;2023-08-17T10:30:51;102049.91;;;20.03;74.23
71964;BME280;59834;52.124;5.422;2023-08-17T10:33:18;102048.06;;;20.24;73.75
71964;BME280;59834;52.124;5.422;2023-08-17T10:35:46;102044.16;;;20.29;73.50
71964;BME280;59834;52.124;5.422;2023-08-17T10:38:13;102047.53;;;20.31;73.47
71964;BME280;59834;52.124;5.422;2023-08-17T10:40:42;102048.13;;;20.34;73.12
71964;BME280;59834;52.124;5.422;2023-08-17T10:43:09;102039.97;;;20.26;72.56
71964;BME280;59834;52.124;5.422;2023-08-17T10:45:37;102046.72;;;20.09;73.56
71964;BME280;59834;52.124;5.422;2023-08-17T10:50:32;102057.16;;;20.01;73.60
71964;BME280;59834;52.124;5.422;2023-08-17T10:53:04;102057.72;;;20.05;74.36
71964;BME280;59834;52.124;5.422;2023-08-17T10:55:38;102054.69;;;20.09;74.24
71964;BME280;59834;52.124;5.422;2023-08-17T10:58:06;102052.22;;;20.17;73.93
71964;BME280;59834;52.124;5.422;2023-08-17T11:00:42;102057.03;;;20.23;73.83
71964;BME280;59834;52.124;5.422;2023-08-17T11:03:19;102052.09;;;20.40;73.64
71964;BME280;59834;52.124;5.422;2023-08-17T11:05:51;102050.94;;;20.33;74.00
71964;BME280;59834;52.124;5.422;2023-08-17T11:08:31;102049.00;;;20.44;73.42
71964;BME280;59834;52.124;5.422;2023-08-17T11:13:43;102038.34;;;20.56;72.61
71964;BME280;59834;52.124;5.422;2023-08-17T11:16:12;102041.88;;;20.66;73.27
71964;BME280;59834;52.124;5.422;2023-08-17T11:18:44;102048.38;;;20.52;72.59
71964;BME280;59834;52.124;5.422;2023-08-17T11:21:10;102043.59;;;20.46;73.41
71964;BME280;59834;52.124;5.422;2023-08-17T11:23:37;102048.31;;;20.42;73.28
71964;BME280;59834;52.124;5.422;2023-08-17T11:26:04;102046.16;;;20.57;73.17
71964;BME280;59834;52.124;5.422;2023-08-17T11:28:32;102049.72;;;20.67;73.48
71964;BME280;59834;52.124;5.422;2023-08-17T11:31:10;102045.75;;;20.62;73.17
71964;BME280;59834;52.124;5.422;2023-08-17T11:33:38;102040.75;;;20.68;72.72
71964;BME280;59834;52.124;5.422;2023-08-17T11:36:07;102044.09;;;20.61;72.34
71964;BME280;59834;52.124;5.422;2023-08-17T11:38:36;102049.09;;;20.54;73.39
71964;BME280;59834;52.124;5.422;2023-08-17T11:41:04;102052.50;;;20.45;73.22
71964;BME280;59834;52.124;5.422;2023-08-17T11:43:32;102045.34;;;20.36;73.55
71964;BME280;59834;52.124;5.422;2023-08-17T11:46:00;102044.47;;;20.35;74.08
71964;BME280;59834;52.124;5.422;2023-08-17T11:48:27;102040.88;;;20.36;73.93
71964;BME280;59834;52.124;5.422;2023-08-17T11:50:54;102036.50;;;20.35;73.59
71964;BME280;59834;52.124;5.422;2023-08-17T11:53:32;102035.06;;;20.52;73.53
71964;BME280;59834;52.124;5.422;2023-08-17T11:55:59;102036.56;;;20.66;72.72
71964;BME280;59834;52.124;5.422;2023-08-17T11:58:42;102028.53;;;20.56;73.28
71964;BME280;59834;52.124;5.422;2023-08-17T12:01:10;102028.91;;;20.52;73.91
71964;BME280;59834;52.124;5.422;2023-08-17T12:03:40;102037.56;;;20.75;73.11
71964;BME280;59834;52.124;5.422;2023-08-17T12:06:10;102037.56;;;20.75;73.53
71964;BME280;59834;52.124;5.422;2023-08-17T12:08:42;102035.56;;;20.67;72.78
71964;BME280;59834;52.124;5.422;2023-08-17T12:11:12;102035.59;;;20.46;73.87
71964;BME280;59834;52.124;5.422;2023-08-17T12:13:39;102036.66;;;20.34;73.75
71964;BME280;59834;52.124;5.422;2023-08-17T12:16:06;102031.94;;;20.16;74.58
71964;BME280;59834;52.124;5.422;2023-08-17T12:18:33;102025.91;;;20.14;74.93
71964;BME280;59834;52.124;5.422;2023-08-17T12:21:00;102031.47;;;20.11;75.21
71964;BME280;59834;52.124;5.422;2023-08-17T12:23:28;102033.22;;;20.22;75.16
71964;BME280;59834;52.124;5.422;2023-08-17T12:25:55;102027.00;;;20.33;75.64
71964;BME280;59834;52.124;5.422;2023-08-17T12:28:23;102032.75;;;20.38;75.25
71964;BME280;59834;52.124;5.422;2023-08-17T12:31:01;102035.59;;;20.46;75.20
71964;BME280;59834;52.124;5.422;2023-08-17T12:33:28;102031.47;;;20.53;74.17
71964;BME280;59834;52.124;5.422;2023-08-17T12:35:55;102029.22;;;20.58;74.26
71964;BME280;59834;52.124;5.422;2023-08-17T12:38:24;102030.47;;;20.54;74.48
71964;BME280;59834;52.124;5.422;2023-08-17T12:40:50;102032.41;;;20.52;74.67
71964;BME280;59834;52.124;5.422;2023-08-17T12:43:17;102025.16;;;20.54;74.71
71964;BME280;59834;52.124;5.422;2023-08-17T12:45:43;102032.16;;;20.55;74.58
71964;BME280;59834;52.124;5.422;2023-08-17T12:48:10;102034.56;;;20.58;74.58
71964;BME280;59834;52.124;5.422;2023-08-17T12:50:37;102033.47;;;20.40;74.42
71964;BME280;59834;52.124;5.422;2023-08-17T12:53:09;102031.91;;;20.37;75.29
71964;BME280;59834;52.124;5.422;2023-08-17T12:55:35;102036.97;;;20.40;74.69
71964;BME280;59834;52.124;5.422;2023-08-17T12:58:02;102038.91;;;20.38;75.53
71964;BME280;59834;52.124;5.422;2023-08-17T13:00:30;102032.75;;;20.38;75.13
71964;BME280;59834;52.124;5.422;2023-08-17T13:02:56;102044.09;;;20.40;75.40
71964;BME280;59834;52.124;5.422;2023-08-17T13:05:23;102031.13;;;20.46;75.35